createdAt,value
2022-10-06T00:13:51.935Z,92.6
2022-10-06T00:28:24.778Z,100
2022-10-06T00:42:56.560Z,100
2022-10-06T00:57:27.079Z,95.1
2022-10-06T01:11:59.680Z,93.5
2022-10-06T01:26:30.236Z,95.8
2022-10-06T01:41:02.235Z,96.4
2022-10-06T01:55:32.799Z,98.3
2022-10-06T02:10:04.471Z,100
2022-10-06T02:24:36.591Z,100
2022-10-06T02:39:08.785Z,100
2022-10-06T02:53:41.766Z,100
2022-10-06T03:08:14.418Z,100
2022-10-06T03:22:46.375Z,100
2022-10-06T03:37:18.125Z,100
2022-10-06T03:51:50.095Z,100
2022-10-06T04:06:21.286Z,100
2022-10-06T04:20:54.070Z,100
2022-10-06T04:35:27.159Z,100
2022-10-06T04:49:58.992Z,100
2022-10-06T05:04:31.995Z,100
2022-10-06T05:19:04.599Z,100
2022-10-06T05:33:37.529Z,100
2022-10-06T05:48:09.691Z,98.1
2022-10-06T06:02:42.601Z,96.4
2022-10-06T06:17:13.739Z,96.5
2022-10-06T06:31:46.511Z,96.8
2022-10-06T06:46:18.754Z,96.4
2022-10-06T07:00:52.429Z,96.4
2022-10-06T07:15:24.302Z,96.9
2022-10-06T07:29:57.644Z,96.8
2022-10-06T07:44:30.507Z,95.3
2022-10-06T07:59:02.873Z,92.7
2022-10-06T08:13:37.318Z,86.9
2022-10-06T08:28:20.048Z,73.9
2022-10-06T08:42:55.998Z,72.9
2022-10-06T08:57:25.267Z,72.8
2022-10-06T09:12:04.357Z,66.8
2022-10-06T09:26:38.925Z,61.4
2022-10-06T09:41:09.908Z,62.6
2022-10-06T09:55:34.456Z,64.5
2022-10-06T10:10:06.605Z,60.5
2022-10-06T10:24:39.741Z,62
2022-10-06T10:39:15.062Z,58
2022-10-06T10:53:47.108Z,57
2022-10-06T11:08:18.742Z,56.9
2022-10-06T11:22:51.720Z,54.7
2022-10-06T11:37:23.026Z,54.2
2022-10-06T11:52:02.515Z,53.1
2022-10-06T12:06:36.017Z,51
2022-10-06T12:21:08.164Z,49.4
2022-10-06T12:35:40.465Z,49.8
2022-10-06T12:50:12.463Z,50.9
2022-10-06T13:04:44.539Z,50.2
2022-10-06T13:19:18.561Z,51
2022-10-06T13:33:52.141Z,47.9
2022-10-06T13:48:24.943Z,48.4
2022-10-06T14:02:57.283Z,50.6
2022-10-06T14:17:29.079Z,50.6
2022-10-06T14:32:01.881Z,50.8
2022-10-06T14:46:34.842Z,50.2
2022-10-06T15:01:06.416Z,51.6
2022-10-06T15:15:38.504Z,49.6
2022-10-06T15:30:10.361Z,49.5
2022-10-06T15:44:42.514Z,49.5
2022-10-06T15:59:14.101Z,49
2022-10-06T16:13:44.762Z,56.7
2022-10-06T16:28:16.588Z,57
2022-10-06T16:42:47.799Z,60.6
2022-10-06T16:57:18.868Z,63.5
2022-10-06T17:11:49.538Z,62.2
2022-10-06T17:26:20.376Z,65.4
2022-10-06T17:40:52.364Z,68.1
2022-10-06T17:55:25.553Z,69.8
2022-10-06T18:09:56.652Z,71.7
2022-10-06T18:24:29.274Z,73.8
2022-10-06T18:38:59.257Z,75.2
2022-10-06T18:53:30.474Z,79
2022-10-06T19:08:03.890Z,78.3
2022-10-06T19:22:37.020Z,81.9
2022-10-06T19:37:06.849Z,84.9
2022-10-06T19:51:39.734Z,83.4
2022-10-06T20:06:11.807Z,87.3
2022-10-06T20:20:44.057Z,86.5
2022-10-06T20:35:16.070Z,87.2
2022-10-06T20:49:47.474Z,86.4
2022-10-06T21:04:20.431Z,87.3
2022-10-06T21:18:51.712Z,91.1
2022-10-06T21:33:23.170Z,89
2022-10-06T21:47:53.941Z,89.4
2022-10-06T22:02:26.711Z,91.1
2022-10-06T22:16:58.519Z,92.2
2022-10-06T22:31:31.425Z,92.8
2022-10-06T22:46:02.893Z,91.8
2022-10-06T23:00:35.032Z,92
2022-10-06T23:15:07.432Z,91.7
2022-10-06T23:29:38.979Z,93.9
2022-10-06T23:44:10.858Z,90.8
2022-10-06T23:58:42.014Z,95.4
